Time;durP1;ratioP1;P1;durP2;ratioP2;P2;SDS_P1;SDS_P2;PMS_P1;PMS_P2;Temp;Humidity;BMP_temperature;BMP_pressure;BME280_temperature;BME280_humidity;BME280_pressure;Samples;Min_cycle;Max_cycle;Signal;HPM_P1;HPM_P2
2023/11/26 08:30:47;;;;;;;42.77;17.93;;;3.80;99.90;;;;;;5474744;23;20497;-66
2023/11/26 08:33:17;;;;;;;47.33;21.37;;;3.80;99.90;;;;;;4932608;29;20183;-65
2023/11/26 08:35:42;;;;;;;53.33;19.50;;;3.80;99.90;;;;;;4933255;29;20187;-65
2023/11/26 08:38:09;;;;;;;43.07;17.93;;;3.80;99.90;;;;;;4933586;29;20195;-67
2023/11/26 08:40:38;;;;;;;57.30;18.17;;;3.80;99.90;;;;;;4932377;29;20194;-68
2023/11/26 08:43:14;;;;;;;42.20;16.30;;;3.80;99.90;;;;;;4933254;29;20187;-66
2023/11/26 08:45:40;;;;;;;48.90;18.57;;;3.80;99.90;;;;;;4947414;29;20319;-66
2023/11/26 08:48:06;;;;;;;43.73;19.27;;;3.80;99.90;;;;;;4932664;29;20218;-67
2023/11/26 08:50:34;;;;;;;42.60;18.57;;;3.80;99.90;;;;;;4931917;29;20234;-67
2023/11/26 08:53:02;;;;;;;42.63;18.83;;;3.90;99.90;;;;;;4932633;29;20175;-66
2023/11/26 08:55:28;;;;;;;41.73;18.60;;;3.90;99.90;;;;;;4933223;29;20610;-67
2023/11/26 08:57:53;;;;;;;43.83;18.90;;;3.90;99.90;;;;;;4932957;29;20721;-67
2023/11/26 09:00:19;;;;;;;49.13;19.83;;;3.90;99.90;;;;;;4930439;29;20714;-66
2023/11/26 09:02:44;;;;;;;58.90;20.70;;;3.90;99.90;;;;;;4934412;29;20222;-66
2023/11/26 09:05:10;;;;;;;44.77;17.67;;;3.90;99.90;;;;;;4932377;29;20222;-66
2023/11/26 09:07:45;;;;;;;46.67;17.60;;;3.90;99.90;;;;;;4932160;29;20207;-66
2023/11/26 09:10:17;;;;;;;39.80;15.50;;;4.00;99.90;;;;;;4931467;29;20222;-66
2023/11/26 09:12:42;;;;;;;43.37;16.70;;;4.00;99.90;;;;;;4932333;29;20189;-66
2023/11/26 09:15:10;;;;;;;42.23;17.07;;;4.00;99.90;;;;;;4932423;29;20496;-66
2023/11/26 09:17:37;;;;;;;46.30;15.87;;;4.10;99.90;;;;;;4932385;29;20179;-66
2023/11/26 09:20:03;;;;;;;37.63;14.57;;;4.10;99.90;;;;;;4931432;29;20203;-66
2023/11/26 09:22:30;;;;;;;46.97;15.20;;;4.10;99.90;;;;;;4932322;29;20658;-66
2023/11/26 09:24:56;;;;;;;42.97;15.97;;;4.10;99.90;;;;;;4932072;29;20531;-66
2023/11/26 09:27:22;;;;;;;50.23;16.40;;;4.10;99.90;;;;;;4932373;29;20749;-65
2023/11/26 09:29:48;;;;;;;43.10;14.67;;;4.20;99.90;;;;;;4931460;29;20199;-65
2023/11/26 09:32:14;;;;;;;42.27;14.57;;;4.10;99.90;;;;;;4934119;29;20206;-65
2023/11/26 09:34:40;;;;;;;45.20;15.07;;;4.10;99.90;;;;;;4935764;29;20203;-66
2023/11/26 09:37:05;;;;;;;44.67;16.77;;;4.10;99.90;;;;;;4935796;29;20262;-66
2023/11/26 09:39:34;;;;;;;53.37;17.77;;;4.20;99.90;;;;;;4935307;29;20278;-66
2023/11/26 09:42:01;;;;;;;49.43;18.27;;;4.10;99.90;;;;;;4935700;29;20215;-65
2023/11/26 09:44:27;;;;;;;42.67;15.43;;;4.10;99.90;;;;;;4935693;29;20184;-66
2023/11/26 09:46:53;;;;;;;43.33;15.97;;;4.20;99.90;;;;;;4935647;29;20187;-66
2023/11/26 09:49:18;;;;;;;47.97;18.37;;;4.20;99.90;;;;;;4934666;29;20210;-66
2023/11/26 09:51:50;;;;;;;42.67;17.73;;;4.20;99.90;;;;;;4935485;29;20684;-66
2023/11/26 09:54:16;;;;;;;42.87;16.90;;;4.20;99.90;;;;;;4935445;29;20190;-65
2023/11/26 09:56:43;;;;;;;25.30;13.10;;;4.30;99.90;;;;;;4935496;29;20179;-67
2023/11/26 09:59:33;;;;;;;50.30;18.63;;;4.30;99.90;;;;;;4934628;29;20208;-65
2023/11/26 10:02:00;;;;;;;50.30;18.40;;;4.60;99.90;;;;;;4935597;29;20190;-67
2023/11/26 10:04:26;;;;;;;56.13;20.87;;;4.70;99.90;;;;;;4935525;29;20179;-67
2023/11/26 10:06:55;;;;;;;43.33;17.27;;;4.70;99.90;;;;;;4935599;29;20191;-68
2023/11/26 10:09:22;;;;;;;42.80;17.43;;;4.70;99.90;;;;;;4934540;29;20450;-66
2023/11/26 10:11:48;;;;;;;39.43;17.93;;;4.70;99.90;;;;;;4935135;29;20199;-68
2023/11/26 10:14:16;;;;;;;33.10;13.80;;;4.70;99.90;;;;;;4935020;29;20187;-67
2023/11/26 10:16:42;;;;;;;32.70;13.60;;;4.70;99.90;;;;;;4934979;29;20206;-67
2023/11/26 10:19:25;;;;;;;39.27;15.63;;;4.60;99.90;;;;;;4934725;29;20638;-67
2023/11/26 10:22:00;;;;;;;32.97;14.87;;;4.70;99.90;;;;;;4934877;29;20210;-65
2023/11/26 10:24:30;;;;;;;29.93;14.60;;;4.60;99.90;;;;;;4935181;29;20214;-68
2023/11/26 10:26:58;;;;;;;31.70;14.30;;;4.70;99.90;;;;;;4934981;29;20193;-67
2023/11/26 10:29:30;;;;;;;38.90;14.47;;;4.70;99.90;;;;;;4934109;29;20215;-67
2023/11/26 10:32:04;;;;;;;36.83;13.23;;;4.70;99.90;;;;;;4934862;29;20226;-67
2023/11/26 10:34:31;;;;;;;28.33;11.47;;;4.70;99.90;;;;;;4949790;29;20175;-68
2023/11/26 10:36:57;;;;;;;23.57;10.57;;;4.70;99.90;;;;;;4934687;29;20183;-64
2023/11/26 10:39:23;;;;;;;30.80;12.23;;;4.70;99.90;;;;;;4934402;29;20258;-67
2023/11/26 10:41:50;;;;;;;26.03;12.60;;;4.80;99.90;;;;;;4934457;29;20727;-67
2023/11/26 10:44:16;;;;;;;26.43;11.53;;;4.80;99.90;;;;;;4934769;29;20211;-67
2023/11/26 10:46:45;;;;;;;28.80;13.40;;;4.80;99.90;;;;;;4934660;29;20664;-65
2023/11/26 10:49:22;;;;;;;30.30;12.67;;;4.80;99.90;;;;;;4933777;29;20208;-66
2023/11/26 10:51:55;;;;;;;30.30;12.43;;;4.80;99.90;;;;;;4934555;29;20213;-66
2023/11/26 10:54:45;;;;;;;25.43;11.90;;;4.90;99.90;;;;;;4934557;29;20637;-66
2023/11/26 10:57:16;;;;;;;25.67;11.90;;;4.90;99.90;;;;;;4934298;29;20242;-68
2023/11/26 10:59:47;;;;;;;31.57;12.87;;;5.00;99.90;;;;;;4932597;29;20179;-68
2023/11/26 11:02:16;;;;;;;31.90;12.53;;;5.00;99.90;;;;;;4934158;29;20191;-67
2023/11/26 11:04:48;;;;;;;28.43;12.67;;;5.10;99.90;;;;;;4934553;29;20187;-67
2023/11/26 11:07:14;;;;;;;27.43;12.30;;;5.20;99.90;;;;;;4934679;29;20182;-67
2023/11/26 11:09:50;;;;;;;27.83;11.30;;;5.30;99.90;;;;;;4933661;29;20630;-67
2023/11/26 11:12:23;;;;;;;25.57;10.30;;;5.30;99.90;;;;;;4934436;29;20175;-66
2023/11/26 11:14:50;;;;;;;30.37;10.97;;;5.30;99.90;;;;;;4934255;29;20561;-66
2023/11/26 11:17:31;;;;;;;23.17;10.00;;;5.30;99.90;;;;;;4933928;29;20187;-67
2023/11/26 11:19:57;;;;;;;24.37;9.77;;;5.40;99.90;;;;;;4933307;29;20203;-67
2023/11/26 11:22:46;;;;;;;21.80;9.60;;;5.40;99.90;;;;;;4934101;29;20607;-66
2023/11/26 11:25:13;;;;;;;24.20;9.93;;;5.30;99.90;;;;;;4933750;29;20190;-66
2023/11/26 11:27:55;;;;;;;24.77;9.73;;;5.30;99.90;;;;;;4933987;29;20263;-66
2023/11/26 11:30:33;;;;;;;20.43;10.27;;;5.30;99.90;;;;;;4933197;29;20207;-66
2023/11/26 11:33:09;;;;;;;26.00;10.93;;;5.40;99.90;;;;;;4933666;29;20193;-66
2023/11/26 11:35:36;;;;;;;22.70;10.23;;;5.30;99.90;;;;;;4933811;29;20269;-66
2023/11/26 11:38:06;;;;;;;25.03;10.20;;;5.30;99.90;;;;;;4933556;29;20222;-66
2023/11/26 11:40:57;;;;;;;23.90;10.53;;;5.40;99.90;;;;;;4932761;29;20219;-67
2023/11/26 11:43:23;;;;;;;23.70;10.23;;;5.50;99.90;;;;;;4933605;29;20217;-66
2023/11/26 11:45:49;;;;;;;22.93;10.60;;;5.70;99.90;;;;;;4942877;29;20186;-66
2023/11/26 11:48:42;;;;;;;23.40;10.20;;;5.80;99.90;;;;;;4935762;28;20370;-66
2023/11/26 11:51:30;;;;;;;14.43;8.10;;;5.90;99.90;;;;;;4934765;28;20328;-66
2023/11/26 11:54:35;;;;;;;19.03;9.47;;;5.90;99.90;;;;;;4932855;29;20174;-67
2023/11/26 11:57:03;;;;;;;20.83;9.20;;;5.90;99.90;;;;;;4931617;29;20228;-66
2023/11/26 11:59:29;;;;;;;14.93;7.10;;;5.90;99.90;;;;;;4932675;29;20523;-66
2023/11/26 12:01:58;;;;;;;10.83;5.53;;;5.90;99.90;;;;;;4933150;29;20206;-66
2023/11/26 12:04:41;;;;;;;12.60;5.70;;;5.80;99.90;;;;;;4933168;29;20215;-66
2023/11/26 12:07:06;;;;;;;11.73;5.50;;;5.90;99.90;;;;;;4933147;29;20179;-66
2023/11/26 12:09:37;;;;;;;11.03;5.30;;;5.90;99.90;;;;;;4932501;29;20195;-67
2023/11/26 12:12:03;;;;;;;15.00;7.07;;;5.90;99.90;;;;;;4933120;29;20262;-66
2023/11/26 12:14:29;;;;;;;13.53;6.40;;;5.90;99.90;;;;;;4933194;29;20763;-67
2023/11/26 12:16:55;;;;;;;14.97;6.27;;;6.00;99.90;;;;;;4934390;29;20297;-66
2023/11/26 12:19:21;;;;;;;19.47;7.83;;;6.10;99.90;;;;;;4932691;29;20339;-67
2023/11/26 12:21:48;;;;;;;15.87;6.40;;;6.00;99.90;;;;;;4932864;29;20290;-67
2023/11/26 12:24:22;;;;;;;15.37;6.70;;;6.00;99.90;;;;;;4932810;29;20270;-67
2023/11/26 12:26:49;;;;;;;15.87;7.20;;;6.00;99.90;;;;;;4933010;29;20233;-66
2023/11/26 12:29:29;;;;;;;13.57;7.10;;;6.00;99.90;;;;;;4932509;29;20195;-66
2023/11/26 12:31:56;;;;;;;14.27;6.30;;;6.00;99.90;;;;;;4932556;29;20210;-67
2023/11/26 12:34:23;;;;;;;22.00;8.20;;;6.10;99.90;;;;;;4932740;29;20193;-66
2023/11/26 12:36:50;;;;;;;18.27;7.80;;;6.10;99.90;;;;;;4932900;29;20179;-66
2023/11/26 12:39:17;;;;;;;17.00;7.93;;;6.10;99.90;;;;;;4932023;29;20210;-67
2023/11/26 12:41:44;;;;;;;18.50;7.97;;;6.10;99.90;;;;;;4932552;29;20195;-66
2023/11/26 12:44:11;;;;;;;18.17;7.60;;;6.20;99.90;;;;;;4932574;29;20580;-66
2023/11/26 12:46:37;;;;;;;21.53;7.70;;;6.20;99.90;;;;;;4932791;29;20237;-66
2023/11/26 12:49:13;;;;;;;20.83;8.50;;;6.20;99.90;;;;;;4932339;29;20676;-67
2023/11/26 12:51:39;;;;;;;17.10;7.67;;;6.10;99.90;;;;;;4932452;29;20207;-66
2023/11/26 12:54:04;;;;;;;26.23;8.73;;;6.10;99.90;;;;;;4941048;29;20202;-66
2023/11/26 12:56:30;;;;;;;18.43;8.57;;;6.10;99.90;;;;;;4933120;29;20194;-67
2023/11/26 12:59:02;;;;;;;15.23;7.97;;;6.10;99.90;;;;;;4932288;29;20262;-67
2023/11/26 13:01:34;;;;;;;20.07;8.47;;;6.10;99.90;;;;;;4932085;29;20203;-67
2023/11/26 13:04:00;;;;;;;14.30;7.90;;;6.00;99.90;;;;;;4932464;29;20262;-67
2023/11/26 13:06:27;;;;;;;16.20;8.00;;;6.00;99.90;;;;;;4935104;29;20326;-66
2023/11/26 13:09:12;;;;;;;17.47;8.50;;;6.00;99.90;;;;;;4935026;29;20187;-66
2023/11/26 13:11:40;;;;;;;15.97;7.30;;;6.00;99.90;;;;;;4930279;29;20672;-66
2023/11/26 13:14:08;;;;;;;15.13;7.47;;;6.00;99.90;;;;;;4936275;29;20175;-66
2023/11/26 13:16:34;;;;;;;19.30;7.23;;;6.00;99.90;;;;;;4936212;29;20532;-67
2023/11/26 13:19:04;;;;;;;16.57;6.87;;;6.10;99.90;;;;;;4935837;29;20688;-67
2023/11/26 13:21:35;;;;;;;13.67;6.87;;;6.00;99.90;;;;;;4934516;29;20207;-67
2023/11/26 13:24:01;;;;;;;20.57;7.33;;;6.00;99.90;;;;;;4935958;29;20397;-67
2023/11/26 13:26:26;;;;;;;18.80;7.33;;;6.00;99.90;;;;;;4939831;29;20188;-66
2023/11/26 13:28:52;;;;;;;18.70;7.63;;;6.00;99.90;;;;;;4936289;29;20315;-66
2023/11/26 13:31:18;;;;;;;19.73;7.27;;;6.00;99.90;;;;;;4934861;29;20278;-67
2023/11/26 13:33:46;;;;;;;19.60;7.57;;;6.00;99.90;;;;;;4935872;29;20175;-66
2023/11/26 13:36:12;;;;;;;17.03;8.63;;;6.00;99.90;;;;;;4935753;29;20175;-67
2023/11/26 13:38:38;;;;;;;17.57;7.27;;;6.00;99.90;;;;;;4935706;29;20679;-66
2023/11/26 13:41:04;;;;;;;16.63;7.13;;;6.00;99.90;;;;;;4934934;29;20202;-66
2023/11/26 13:43:31;;;;;;;18.80;6.30;;;5.90;99.90;;;;;;4936091;29;20184;-66
2023/11/26 13:45:57;;;;;;;19.27;6.87;;;6.00;99.90;;;;;;4935734;29;20183;-66
2023/11/26 13:48:24;;;;;;;14.00;7.10;;;5.90;99.90;;;;;;4934328;29;20591;-66
2023/11/26 13:50:49;;;;;;;19.73;8.10;;;5.90;99.90;;;;;;4934951;29;20203;-66
2023/11/26 13:53:15;;;;;;;18.10;7.33;;;5.90;99.90;;;;;;4935345;29;20191;-66
2023/11/26 13:55:41;;;;;;;16.63;6.83;;;6.00;99.90;;;;;;4935681;29;20257;-66
2023/11/26 13:58:07;;;;;;;18.63;6.97;;;6.00;99.90;;;;;;4935303;29;20187;-66
2023/11/26 14:00:32;;;;;;;20.63;8.40;;;6.00;99.90;;;;;;4934678;29;20242;-66
2023/11/26 14:02:58;;;;;;;16.27;7.43;;;6.00;99.90;;;;;;4935450;29;20527;-66
2023/11/26 14:05:24;;;;;;;13.80;6.70;;;6.00;99.90;;;;;;4950097;29;20596;-66
2023/11/26 14:07:51;;;;;;;13.57;6.17;;;6.00;99.90;;;;;;4935073;29;20190;-66
2023/11/26 14:10:20;;;;;;;12.07;5.63;;;5.90;99.90;;;;;;4934576;29;20293;-66
2023/11/26 14:12:46;;;;;;;15.20;5.67;;;5.90;99.90;;;;;;4935495;29;20206;-66
2023/11/26 14:15:14;;;;;;;11.73;5.60;;;5.90;99.90;;;;;;4935067;29;20262;-66
2023/11/26 14:17:50;;;;;;;11.73;6.00;;;5.90;99.90;;;;;;4935103;29;20188;-66
2023/11/26 14:20:17;;;;;;;13.73;5.90;;;5.90;99.90;;;;;;4934285;29;20222;-66
2023/11/26 14:22:45;;;;;;;14.93;5.87;;;5.90;99.90;;;;;;4935265;29;20556;-65
2023/11/26 14:25:13;;;;;;;14.00;6.67;;;5.90;99.90;;;;;;4934938;29;20282;-65
2023/11/26 14:27:38;;;;;;;15.67;6.53;;;5.90;99.90;;;;;;4935320;29;20183;-65
2023/11/26 14:30:04;;;;;;;13.43;6.10;;;5.90;99.90;;;;;;4934499;29;20640;-66
2023/11/26 14:32:30;;;;;;;14.70;6.63;;;5.80;99.90;;;;;;4934888;29;20207;-66
2023/11/26 14:34:56;;;;;;;13.90;6.13;;;5.80;99.90;;;;;;4934998;29;20187;-66
2023/11/26 14:37:22;;;;;;;14.53;6.10;;;5.70;99.90;;;;;;4934872;29;20229;-65
2023/11/26 14:39:51;;;;;;;12.57;5.93;;;5.70;99.90;;;;;;4934215;29;20238;-65
2023/11/26 14:42:17;;;;;;;13.00;5.70;;;5.70;99.90;;;;;;4934558;29;20187;-66
2023/11/26 14:44:43;;;;;;;15.57;5.80;;;5.70;99.90;;;;;;4934803;29;20183;-66
2023/11/26 14:47:09;;;;;;;13.00;6.10;;;5.70;99.90;;;;;;4933731;29;20183;-66
2023/11/26 14:49:35;;;;;;;11.40;5.30;;;5.70;99.90;;;;;;4933725;29;20187;-65
2023/11/26 14:52:01;;;;;;;9.67;5.33;;;5.60;99.90;;;;;;4936934;29;20199;-66
2023/11/26 14:54:26;;;;;;;10.67;5.30;;;5.70;99.90;;;;;;4944120;29;20649;-66
2023/11/26 14:56:52;;;;;;;12.10;5.60;;;5.60;99.90;;;;;;4939351;29;20203;-65
2023/11/26 14:59:20;;;;;;;10.67;5.83;;;5.60;99.90;;;;;;4935647;29;20294;-66
2023/11/26 15:01:49;;;;;;;10.47;5.07;;;5.70;99.90;;;;;;4940348;29;20206;-66
2023/11/26 15:04:16;;;;;;;9.37;4.63;;;5.60;99.90;;;;;;4941108;29;20190;-66
2023/11/26 15:06:41;;;;;;;10.00;5.70;;;5.60;99.90;;;;;;4940562;29;20353;-65
2023/11/26 15:09:07;;;;;;;12.40;6.03;;;5.60;99.90;;;;;;4934372;29;20645;-65
2023/11/26 15:11:34;;;;;;;10.27;5.17;;;5.60;99.90;;;;;;4934813;29;20226;-66
2023/11/26 15:14:00;;;;;;;6.83;4.10;;;5.60;99.90;;;;;;4944462;29;20233;-65
2023/11/26 15:16:25;;;;;;;9.07;4.40;;;5.60;99.90;;;;;;4934535;29;20187;-65
2023/11/26 15:18:51;;;;;;;6.30;3.73;;;5.50;99.90;;;;;;4934766;29;20410;-65
2023/11/26 15:21:17;;;;;;;6.77;3.50;;;5.50;99.90;;;;;;4933936;29;20652;-65
2023/11/26 15:23:43;;;;;;;8.93;3.20;;;5.40;99.90;;;;;;4934250;29;20187;-64
2023/11/26 15:26:13;;;;;;;4.43;3.10;;;5.40;99.90;;;;;;4933157;29;20200;-65
2023/11/26 15:28:39;;;;;;;5.97;3.43;;;5.40;99.90;;;;;;4933916;29;20188;-64
2023/11/26 15:31:04;;;;;;;7.07;3.53;;;5.40;99.90;;;;;;4933305;29;20252;-64
2023/11/26 15:33:30;;;;;;;13.70;4.47;;;5.40;99.90;;;;;;4934584;29;20195;-64
2023/11/26 15:35:56;;;;;;;7.10;4.27;;;5.40;99.90;;;;;;4934349;29;20199;-65
2023/11/26 15:38:22;;;;;;;8.67;4.00;;;5.30;99.90;;;;;;4934099;29;20271;-65
2023/11/26 15:40:49;;;;;;;9.53;4.13;;;5.40;99.90;;;;;;4933425;29;20313;-65
2023/11/26 15:43:14;;;;;;;10.10;3.67;;;5.30;99.90;;;;;;4934099;29;20215;-65
2023/11/26 15:45:40;;;;;;;7.10;4.17;;;5.40;99.90;;;;;;4934183;29;20274;-65
2023/11/26 15:48:06;;;;;;;9.43;4.43;;;5.30;99.90;;;;;;4933980;29;20187;-65
2023/11/26 15:50:32;;;;;;;8.67;4.43;;;5.30;99.90;;;;;;4933185;29;20219;-65
2023/11/26 15:52:57;;;;;;;11.50;4.57;;;5.30;99.90;;;;;;4941754;29;20187;-64
2023/11/26 15:55:24;;;;;;;12.93;4.73;;;5.20;99.90;;;;;;4943168;29;20257;-65
2023/11/26 15:57:50;;;;;;;7.73;3.87;;;5.20;99.90;;;;;;4938610;29;20195;-64
2023/11/26 16:00:16;;;;;;;10.60;4.63;;;5.30;99.90;;;;;;4942865;28;20219;-64
2023/11/26 16:02:41;;;;;;;13.53;4.80;;;5.30;99.90;;;;;;4938301;29;20644;-64
2023/11/26 16:05:08;;;;;;;8.57;4.90;;;5.30;99.90;;;;;;4941124;29;20215;-65
2023/11/26 16:07:34;;;;;;;14.70;4.83;;;5.30;99.90;;;;;;4934461;29;20190;-64
2023/11/26 16:10:01;;;;;;;8.97;4.70;;;5.30;99.90;;;;;;4933714;29;20207;-64
2023/11/26 16:12:26;;;;;;;9.83;5.13;;;5.30;99.90;;;;;;4934276;29;20559;-64
2023/11/26 16:14:52;;;;;;;9.87;4.93;;;5.30;99.90;;;;;;4933535;29;20186;-65
2023/11/26 16:17:18;;;;;;;14.03;6.07;;;5.30;99.90;;;;;;4933743;29;20191;-65
2023/11/26 16:19:43;;;;;;;16.47;6.03;;;5.30;99.90;;;;;;4932998;29;20238;-64
2023/11/26 16:22:09;;;;;;;12.57;6.83;;;5.30;99.90;;;;;;4933446;29;20275;-65
2023/11/26 16:24:35;;;;;;;18.47;7.90;;;5.30;99.90;;;;;;4933962;29;20179;-65
2023/11/26 16:27:02;;;;;;;13.73;6.83;;;5.30;99.90;;;;;;4933447;29;20226;-64
2023/11/26 16:29:27;;;;;;;14.57;6.67;;;5.30;99.90;;;;;;4932831;29;21105;-65
2023/11/26 16:31:53;;;;;;;14.03;6.83;;;5.30;99.90;;;;;;4942459;29;20294;-65
2023/11/26 16:34:18;;;;;;;13.10;6.97;;;5.30;99.90;;;;;;4942987;29;20182;-64
2023/11/26 16:36:44;;;;;;;15.47;6.20;;;5.40;99.90;;;;;;4942791;29;21106;-64
2023/11/26 16:39:09;;;;;;;16.07;6.90;;;5.30;99.90;;;;;;4942472;29;20702;-65
2023/11/26 16:41:36;;;;;;;14.83;6.10;;;5.30;99.90;;;;;;4939473;28;20209;-64
2023/11/26 16:44:01;;;;;;;13.27;5.80;;;5.30;99.90;;;;;;4933273;29;20190;-64
2023/11/26 16:46:27;;;;;;;9.27;5.23;;;5.30;99.90;;;;;;4925539;29;20175;-63
2023/11/26 16:48:53;;;;;;;10.23;5.47;;;5.30;99.90;;;;;;4933368;29;20183;-62
2023/11/26 16:51:18;;;;;;;12.10;5.73;;;5.30;99.90;;;;;;4932507;29;20217;-63
2023/11/26 16:53:45;;;;;;;13.47;5.97;;;5.30;99.90;;;;;;4937847;29;20186;-63
2023/11/26 16:56:10;;;;;;;12.60;5.90;;;5.30;99.90;;;;;;4933518;29;20179;-63
2023/11/26 16:58:37;;;;;;;14.37;7.10;;;5.30;99.90;;;;;;4938590;29;20191;-64
2023/11/26 17:01:05;;;;;;;15.23;6.67;;;5.20;99.90;;;;;;4932344;29;20317;-62
2023/11/26 17:03:31;;;;;;;14.27;7.43;;;5.20;99.90;;;;;;4940299;29;20187;-64
2023/11/26 17:05:57;;;;;;;12.73;7.47;;;5.20;99.90;;;;;;4939336;29;20356;-64
2023/11/26 17:08:26;;;;;;;15.40;8.47;;;5.20;99.90;;;;;;4932981;29;20183;-63
2023/11/26 17:10:52;;;;;;;14.23;7.20;;;5.30;99.90;;;;;;4930904;29;20245;-64
2023/11/26 17:13:18;;;;;;;18.37;7.27;;;5.30;99.90;;;;;;4932985;29;20491;-64
2023/11/26 17:15:44;;;;;;;152.43;97.50;;;5.30;99.90;;;;;;4931854;29;20242;-64
2023/11/26 17:18:10;;;;;;;16.97;10.73;;;5.30;99.90;;;;;;4932827;29;20199;-64
2023/11/26 17:20:36;;;;;;;35.97;23.00;;;5.30;99.90;;;;;;4932049;29;20211;-64
2023/11/26 17:23:02;;;;;;;13.87;7.70;;;5.20;99.90;;;;;;4932992;29;20213;-64
2023/11/26 17:25:31;;;;;;;12.60;6.50;;;5.20;99.90;;;;;;4932825;29;20194;-64
2023/11/26 17:28:00;;;;;;;9.93;5.97;;;5.20;99.90;;;;;;4933073;29;20201;-64
2023/11/26 17:30:28;;;;;;;12.63;6.23;;;5.20;99.90;;;;;;4931872;29;20632;-64
2023/11/26 17:32:54;;;;;;;9.30;4.90;;;5.30;99.90;;;;;;4932748;29;20195;-64
2023/11/26 17:35:20;;;;;;;10.30;5.17;;;5.30;99.90;;;;;;4932676;29;20201;-64
2023/11/26 17:37:47;;;;;;;12.40;5.27;;;5.20;99.90;;;;;;4932843;29;20191;-66
2023/11/26 17:40:13;;;;;;;10.60;5.80;;;5.20;99.90;;;;;;4931813;29;20227;-66
2023/11/26 17:42:39;;;;;;;10.20;5.67;;;5.20;99.90;;;;;;4932998;29;20191;-64
2023/11/26 17:45:05;;;;;;;9.33;5.53;;;5.20;99.90;;;;;;4932872;29;20652;-67
2023/11/26 17:47:31;;;;;;;10.67;6.17;;;5.30;99.90;;;;;;4932619;29;20270;-66
2023/11/26 17:50:00;;;;;;;9.87;5.10;;;5.20;99.90;;;;;;4932078;29;20299;-66
2023/11/26 17:52:26;;;;;;;9.37;5.00;;;5.20;99.90;;;;;;4933503;29;20688;-66
2023/11/26 17:54:51;;;;;;;9.03;5.27;;;5.20;99.90;;;;;;4934956;29;20201;-65
2023/11/26 17:57:18;;;;;;;9.17;5.57;;;5.20;99.90;;;;;;4936022;29;20195;-65
2023/11/26 17:59:44;;;;;;;6.33;3.97;;;5.20;99.90;;;;;;4935502;29;20218;-65
2023/11/26 18:02:09;;;;;;;7.97;4.80;;;5.20;99.90;;;;;;4935918;29;20195;-64
2023/11/26 18:04:35;;;;;;;9.87;4.20;;;5.10;99.90;;;;;;4935990;29;20322;-65
2023/11/26 18:07:01;;;;;;;9.63;5.33;;;5.10;99.90;;;;;;4936006;29;20186;-64
2023/11/26 18:09:27;;;;;;;7.60;3.97;;;5.10;99.90;;;;;;4935380;29;20195;-65
2023/11/26 18:11:52;;;;;;;7.07;3.70;;;5.10;99.90;;;;;;4935932;29;20585;-64
2023/11/26 18:14:19;;;;;;;7.07;3.63;;;5.10;99.90;;;;;;4935605;29;20275;-65
2023/11/26 18:16:45;;;;;;;7.90;3.40;;;5.10;99.90;;;;;;4935905;29;20211;-64
2023/11/26 18:19:11;;;;;;;8.20;4.23;;;5.10;99.90;;;;;;4935071;29;20297;-64
2023/11/26 18:21:44;;;;;;;5.73;3.53;;;5.10;99.90;;;;;;4935690;29;20643;-64
2023/11/26 18:24:10;;;;;;;4.97;3.60;;;5.10;99.90;;;;;;4935766;29;20187;-64
2023/11/26 18:26:36;;;;;;;6.63;3.40;;;5.10;99.90;;;;;;4935852;29;20661;-64
2023/11/26 18:29:01;;;;;;;4.53;3.00;;;5.00;99.90;;;;;;4935645;29;20215;-65
2023/11/26 18:31:27;;;;;;;5.67;3.13;;;5.00;99.90;;;;;;4934473;29;20251;-66
2023/11/26 18:33:53;;;;;;;7.93;2.50;;;5.00;99.90;;;;;;4935539;29;20183;-67
2023/11/26 18:36:18;;;;;;;13.00;9.77;;;4.90;99.90;;;;;;4935464;29;20549;-66
2023/11/26 18:38:44;;;;;;;8.83;7.60;;;4.90;99.90;;;;;;4935470;29;20242;-65
2023/11/26 18:41:22;;;;;;;9.40;7.77;;;4.80;99.90;;;;;;4934634;29;20274;-65
2023/11/26 18:43:48;;;;;;;5.50;2.50;;;4.80;99.90;;;;;;4935370;29;20198;-64
2023/11/26 18:46:15;;;;;;;4.33;2.03;;;4.80;99.90;;;;;;4950024;28;20231;-66
2023/11/26 18:48:40;;;;;;;3.70;2.40;;;4.80;99.90;;;;;;4949930;29;20187;-65
2023/11/26 18:51:06;;;;;;;14.00;9.13;;;4.80;99.90;;;;;;4934393;29;20610;-65
2023/11/26 18:53:32;;;;;;;4.43;2.93;;;4.80;99.90;;;;;;4935257;29;20195;-66
2023/11/26 18:55:57;;;;;;;4.87;2.60;;;4.80;99.90;;;;;;4935108;29;20668;-66
2023/11/26 18:58:23;;;;;;;4.50;2.70;;;4.80;99.90;;;;;;4935001;29;20584;-66
2023/11/26 19:00:50;;;;;;;5.70;2.93;;;4.80;99.90;;;;;;4934418;29;20297;-67
2023/11/26 19:03:15;;;;;;;3.93;2.43;;;4.80;99.90;;;;;;4934683;29;20197;-65
2023/11/26 19:05:41;;;;;;;5.93;2.90;;;4.80;99.90;;;;;;4934985;29;20184;-66
2023/11/26 19:08:07;;;;;;;2.60;1.60;;;4.70;99.90;;;;;;4934774;29;20190;-65
2023/11/26 19:10:32;;;;;;;3.77;2.30;;;4.70;99.90;;;;;;4934156;29;20222;-65
2023/11/26 19:12:58;;;;;;;4.83;2.17;;;4.70;99.90;;;;;;4934838;29;20218;-66
2023/11/26 19:15:24;;;;;;;4.93;2.60;;;4.60;99.90;;;;;;4934719;29;20203;-66
2023/11/26 19:17:50;;;;;;;4.23;1.87;;;4.60;99.90;;;;;;4934785;29;20234;-67
2023/11/26 19:20:15;;;;;;;3.80;1.87;;;4.60;99.90;;;;;;4933786;29;20302;-66
2023/11/26 19:22:41;;;;;;;3.20;1.90;;;4.60;99.90;;;;;;4934682;29;20187;-66
2023/11/26 19:25:07;;;;;;;2.67;1.60;;;4.60;99.90;;;;;;4934264;29;20202;-66
2023/11/26 19:27:33;;;;;;;4.53;1.90;;;4.60;99.90;;;;;;4934484;29;20195;-64
2023/11/26 19:29:59;;;;;;;6.23;2.37;;;4.60;99.90;;;;;;4933761;29;20222;-66
2023/11/26 19:32:25;;;;;;;3.10;2.03;;;4.60;99.90;;;;;;4934437;29;20808;-66
2023/11/26 19:34:51;;;;;;;2.93;1.93;;;4.60;99.90;;;;;;4934491;29;20250;-66
2023/11/26 19:37:20;;;;;;;5.57;2.23;;;4.60;99.90;;;;;;4934426;29;20195;-67
2023/11/26 19:39:45;;;;;;;11.77;2.40;;;4.50;99.90;;;;;;4932616;29;20565;-66
2023/11/26 19:42:13;;;;;;;7.63;2.80;;;4.50;99.90;;;;;;4937203;29;20194;-65
2023/11/26 19:44:39;;;;;;;4.40;2.60;;;4.50;99.90;;;;;;4942919;29;20187;-67
2023/11/26 19:47:04;;;;;;;5.07;2.80;;;4.50;99.90;;;;;;4938208;29;20262;-66
2023/11/26 19:49:30;;;;;;;6.53;3.27;;;4.50;99.90;;;;;;4938250;29;20226;-67
2023/11/26 19:51:57;;;;;;;9.73;3.30;;;4.50;99.90;;;;;;4934048;29;20662;-66
2023/11/26 19:54:22;;;;;;;6.33;3.17;;;4.40;99.90;;;;;;4933982;29;20195;-66
2023/11/26 19:56:48;;;;;;;9.67;3.63;;;4.40;99.90;;;;;;4934040;29;20207;-67
2023/11/26 19:59:14;;;;;;;6.87;3.53;;;4.40;99.90;;;;;;4933125;29;20211;-67
2023/11/26 20:01:39;;;;;;;10.57;4.00;;;4.40;99.90;;;;;;4933780;29;20302;-66
2023/11/26 20:04:05;;;;;;;8.90;3.47;;;4.40;99.90;;;;;;4933643;29;20191;-65
2023/11/26 20:06:30;;;;;;;7.60;3.23;;;4.50;99.90;;;;;;4933936;29;20624;-66
2023/11/26 20:08:56;;;;;;;15.20;3.47;;;4.50;99.90;;;;;;4934118;29;20234;-67
2023/11/26 20:11:23;;;;;;;12.20;4.90;;;4.40;99.90;;;;;;4932823;29;20283;-66
2023/11/26 20:13:48;;;;;;;10.93;3.80;;;4.40;99.90;;;;;;4933894;29;20218;-67
2023/11/26 20:16:14;;;;;;;8.03;3.33;;;4.40;99.90;;;;;;4933085;29;20218;-67
2023/11/26 20:18:40;;;;;;;8.17;3.17;;;4.40;99.90;;;;;;4933657;29;20179;-65
2023/11/26 20:21:07;;;;;;;7.90;3.00;;;4.50;99.90;;;;;;4932818;29;20266;-65
2023/11/26 20:23:34;;;;;;;8.27;2.80;;;4.40;99.90;;;;;;4933599;29;20619;-67
2023/11/26 20:26:00;;;;;;;6.87;2.90;;;4.40;99.90;;;;;;4933502;29;20183;-66
2023/11/26 20:28:27;;;;;;;11.40;3.03;;;4.40;99.90;;;;;;4933481;29;20266;-67
2023/11/26 20:30:53;;;;;;;9.73;4.10;;;4.40;99.90;;;;;;4932615;29;20323;-67
2023/11/26 20:33:19;;;;;;;6.43;2.57;;;4.40;99.90;;;;;;4933420;29;20212;-67
2023/11/26 20:35:45;;;;;;;8.10;2.80;;;4.40;99.90;;;;;;4933570;29;20322;-67
2023/11/26 20:38:11;;;;;;;6.63;2.50;;;4.40;99.90;;;;;;4933419;29;20206;-67
2023/11/26 20:40:37;;;;;;;9.37;2.70;;;4.40;99.90;;;;;;4932470;29;20223;-65
2023/11/26 20:43:03;;;;;;;14.20;2.93;;;4.40;99.90;;;;;;4933190;29;20234;-65
2023/11/26 20:45:28;;;;;;;6.43;2.40;;;4.40;99.90;;;;;;4947871;29;20190;-64
2023/11/26 20:47:54;;;;;;;13.20;3.17;;;4.30;99.90;;;;;;4933505;28;20183;-66
2023/11/26 20:50:20;;;;;;;8.97;3.33;;;4.30;99.90;;;;;;4932489;29;20235;-65
2023/11/26 20:52:46;;;;;;;10.13;3.00;;;4.30;99.90;;;;;;4940019;29;20203;-66
2023/11/26 20:55:15;;;;;;;8.57;3.00;;;4.30;99.90;;;;;;4945810;28;20281;-65
2023/11/26 20:57:41;;;;;;;12.47;3.30;;;4.30;99.90;;;;;;4942647;29;20273;-66
2023/11/26 21:00:10;;;;;;;9.50;3.03;;;4.30;99.90;;;;;;4931799;29;20305;-65
2023/11/26 21:02:37;;;;;;;8.07;3.10;;;4.30;99.90;;;;;;4933317;29;20187;-65
2023/11/26 21:05:06;;;;;;;6.70;2.83;;;4.20;99.90;;;;;;4933064;29;20178;-65
2023/11/26 21:07:33;;;;;;;11.13;3.40;;;4.30;99.90;;;;;;4931868;29;20194;-66
2023/11/26 21:09:59;;;;;;;12.10;3.43;;;4.20;99.90;;;;;;4932195;29;20294;-66
2023/11/26 21:12:25;;;;;;;11.10;3.67;;;4.20;99.90;;;;;;4932861;29;20736;-66
2023/11/26 21:14:50;;;;;;;12.50;3.77;;;4.20;99.90;;;;;;4932999;29;20191;-66
2023/11/26 21:17:16;;;;;;;6.53;3.30;;;4.20;99.90;;;;;;4932880;29;20390;-66
2023/11/26 21:19:42;;;;;;;7.07;3.57;;;4.20;99.90;;;;;;4932660;29;20220;-66